sensor_id;sensor_type;location;lat;lon;timestamp;P1;durP1;ratioP1;P2;durP2;ratioP2
20065;SDS011;10193;48.884;9.182;2023-11-21T00:01:54;0.93;;;0.75;;
20065;SDS011;10193;48.884;9.182;2023-11-21T00:04:22;1.38;;;0.93;;
20065;SDS011;10193;48.884;9.182;2023-11-21T00:06:50;3.17;;;1.05;;
20065;SDS011;10193;48.884;9.182;2023-11-21T00:09:17;1.00;;;0.90;;
20065;SDS011;10193;48.884;9.182;2023-11-21T00:11:44;1.48;;;1.10;;
20065;SDS011;10193;48.884;9.182;2023-11-21T00:14:11;1.50;;;1.00;;
20065;SDS011;10193;48.884;9.182;2023-11-21T00:16:39;2.10;;;1.00;;
20065;SDS011;10193;48.884;9.182;2023-11-21T00:19:06;1.73;;;1.10;;
20065;SDS011;10193;48.884;9.182;2023-11-21T00:21:33;2.67;;;0.95;;
20065;SDS011;10193;48.884;9.182;2023-11-21T00:24:01;1.33;;;0.90;;
20065;SDS011;10193;48.884;9.182;2023-11-21T00:26:28;1.40;;;1.00;;
20065;SDS011;10193;48.884;9.182;2023-11-21T00:28:56;1.40;;;0.90;;
20065;SDS011;10193;48.884;9.182;2023-11-21T00:31:22;2.20;;;1.02;;
20065;SDS011;10193;48.884;9.182;2023-11-21T00:33:49;1.67;;;1.10;;
20065;SDS011;10193;48.884;9.182;2023-11-21T00:36:16;1.70;;;0.93;;
20065;SDS011;10193;48.884;9.182;2023-11-21T00:38:42;0.95;;;0.80;;
20065;SDS011;10193;48.884;9.182;2023-11-21T00:41:10;2.60;;;1.05;;
20065;SDS011;10193;48.884;9.182;2023-11-21T00:43:37;1.20;;;0.95;;
20065;SDS011;10193;48.884;9.182;2023-11-21T00:46:04;1.30;;;0.88;;
20065;SDS011;10193;48.884;9.182;2023-11-21T00:48:32;1.33;;;0.88;;
20065;SDS011;10193;48.884;9.182;2023-11-21T00:50:59;2.50;;;0.80;;
20065;SDS011;10193;48.884;9.182;2023-11-21T00:53:25;1.42;;;0.90;;
20065;SDS011;10193;48.884;9.182;2023-11-21T00:55:52;1.73;;;0.70;;
20065;SDS011;10193;48.884;9.182;2023-11-21T00:58:24;0.88;;;0.88;;
20065;SDS011;10193;48.884;9.182;2023-11-21T01:00:50;1.30;;;0.75;;
20065;SDS011;10193;48.884;9.182;2023-11-21T01:03:17;1.65;;;1.00;;
20065;SDS011;10193;48.884;9.182;2023-11-21T01:05:44;1.80;;;1.00;;
20065;SDS011;10193;48.884;9.182;2023-11-21T01:08:11;1.45;;;0.73;;
20065;SDS011;10193;48.884;9.182;2023-11-21T01:10:38;0.90;;;0.68;;
20065;SDS011;10193;48.884;9.182;2023-11-21T01:13:04;2.63;;;0.90;;
20065;SDS011;10193;48.884;9.182;2023-11-21T01:15:33;1.10;;;0.90;;
20065;SDS011;10193;48.884;9.182;2023-11-21T01:18:00;1.88;;;0.90;;
20065;SDS011;10193;48.884;9.182;2023-11-21T01:20:27;1.10;;;0.80;;
20065;SDS011;10193;48.884;9.182;2023-11-21T01:22:53;2.15;;;0.90;;
20065;SDS011;10193;48.884;9.182;2023-11-21T01:25:20;1.15;;;0.80;;
20065;SDS011;10193;48.884;9.182;2023-11-21T01:27:47;2.33;;;0.98;;
20065;SDS011;10193;48.884;9.182;2023-11-21T01:30:14;0.82;;;0.77;;
20065;SDS011;10193;48.884;9.182;2023-11-21T01:32:42;1.95;;;0.80;;
20065;SDS011;10193;48.884;9.182;2023-11-21T01:35:09;1.38;;;0.82;;
20065;SDS011;10193;48.884;9.182;2023-11-21T01:37:36;2.05;;;0.80;;
20065;SDS011;10193;48.884;9.182;2023-11-21T01:40:03;1.50;;;0.73;;
20065;SDS011;10193;48.884;9.182;2023-11-21T01:42:34;1.25;;;0.70;;
20065;SDS011;10193;48.884;9.182;2023-11-21T01:45:01;0.80;;;0.70;;
20065;SDS011;10193;48.884;9.182;2023-11-21T01:47:30;1.50;;;0.90;;
20065;SDS011;10193;48.884;9.182;2023-11-21T01:49:58;1.77;;;0.80;;
20065;SDS011;10193;48.884;9.182;2023-11-21T01:52:25;1.00;;;0.60;;
20065;SDS011;10193;48.884;9.182;2023-11-21T01:54:52;1.63;;;0.82;;
20065;SDS011;10193;48.884;9.182;2023-11-21T01:57:19;0.90;;;0.75;;
20065;SDS011;10193;48.884;9.182;2023-11-21T01:59:46;1.52;;;0.77;;
20065;SDS011;10193;48.884;9.182;2023-11-21T02:02:15;0.75;;;0.70;;
20065;SDS011;10193;48.884;9.182;2023-11-21T02:04:41;1.50;;;0.68;;
20065;SDS011;10193;48.884;9.182;2023-11-21T02:07:09;1.50;;;0.60;;
20065;SDS011;10193;48.884;9.182;2023-11-21T02:09:36;2.53;;;0.90;;
20065;SDS011;10193;48.884;9.182;2023-11-21T02:12:07;1.88;;;0.70;;
20065;SDS011;10193;48.884;9.182;2023-11-21T02:14:35;0.85;;;0.70;;
20065;SDS011;10193;48.884;9.182;2023-11-21T02:17:02;0.65;;;0.55;;
20065;SDS011;10193;48.884;9.182;2023-11-21T02:19:29;1.48;;;0.90;;
20065;SDS011;10193;48.884;9.182;2023-11-21T02:21:57;1.88;;;0.57;;
20065;SDS011;10193;48.884;9.182;2023-11-21T02:24:29;0.60;;;0.60;;
20065;SDS011;10193;48.884;9.182;2023-11-21T02:26:56;1.20;;;0.80;;
20065;SDS011;10193;48.884;9.182;2023-11-21T02:29:23;0.70;;;0.52;;
20065;SDS011;10193;48.884;9.182;2023-11-21T02:31:53;0.60;;;0.60;;
20065;SDS011;10193;48.884;9.182;2023-11-21T02:34:20;1.27;;;0.70;;
20065;SDS011;10193;48.884;9.182;2023-11-21T02:36:48;1.27;;;0.60;;
20065;SDS011;10193;48.884;9.182;2023-11-21T02:39:16;0.70;;;0.70;;
20065;SDS011;10193;48.884;9.182;2023-11-21T02:41:48;1.38;;;0.60;;
20065;SDS011;10193;48.884;9.182;2023-11-21T02:44:15;1.13;;;0.80;;
20065;SDS011;10193;48.884;9.182;2023-11-21T02:46:41;1.52;;;0.70;;
20065;SDS011;10193;48.884;9.182;2023-11-21T02:49:08;1.33;;;0.70;;
20065;SDS011;10193;48.884;9.182;2023-11-21T02:51:35;0.50;;;0.50;;
20065;SDS011;10193;48.884;9.182;2023-11-21T02:54:03;0.65;;;0.55;;
20065;SDS011;10193;48.884;9.182;2023-11-21T02:56:31;0.80;;;0.60;;
20065;SDS011;10193;48.884;9.182;2023-11-21T02:58:59;0.82;;;0.52;;
20065;SDS011;10193;48.884;9.182;2023-11-21T03:01:27;1.45;;;0.60;;
20065;SDS011;10193;48.884;9.182;2023-11-21T03:03:54;0.70;;;0.70;;
20065;SDS011;10193;48.884;9.182;2023-11-21T03:06:21;0.68;;;0.60;;
20065;SDS011;10193;48.884;9.182;2023-11-21T03:08:48;0.50;;;0.47;;
20065;SDS011;10193;48.884;9.182;2023-11-21T03:11:15;0.43;;;0.40;;
20065;SDS011;10193;48.884;9.182;2023-11-21T03:13:42;0.63;;;0.60;;
20065;SDS011;10193;48.884;9.182;2023-11-21T03:16:11;0.40;;;0.40;;
20065;SDS011;10193;48.884;9.182;2023-11-21T03:18:39;0.60;;;0.60;;
20065;SDS011;10193;48.884;9.182;2023-11-21T03:21:06;0.98;;;0.60;;
20065;SDS011;10193;48.884;9.182;2023-11-21T03:23:34;0.50;;;0.50;;
20065;SDS011;10193;48.884;9.182;2023-11-21T03:26:01;1.77;;;0.80;;
20065;SDS011;10193;48.884;9.182;2023-11-21T03:28:28;1.10;;;0.60;;
20065;SDS011;10193;48.884;9.182;2023-11-21T03:30:55;0.70;;;0.70;;
20065;SDS011;10193;48.884;9.182;2023-11-21T03:33:23;1.00;;;0.60;;
20065;SDS011;10193;48.884;9.182;2023-11-21T03:35:50;1.08;;;0.70;;
20065;SDS011;10193;48.884;9.182;2023-11-21T03:38:18;0.55;;;0.40;;
20065;SDS011;10193;48.884;9.182;2023-11-21T03:40:45;0.70;;;0.50;;
20065;SDS011;10193;48.884;9.182;2023-11-21T03:43:12;1.65;;;0.57;;
20065;SDS011;10193;48.884;9.182;2023-11-21T03:45:39;0.70;;;0.55;;
20065;SDS011;10193;48.884;9.182;2023-11-21T03:48:06;0.50;;;0.45;;
20065;SDS011;10193;48.884;9.182;2023-11-21T03:50:35;1.10;;;0.65;;
20065;SDS011;10193;48.884;9.182;2023-11-21T03:53:01;1.45;;;0.50;;
20065;SDS011;10193;48.884;9.182;2023-11-21T03:55:28;1.10;;;0.60;;
20065;SDS011;10193;48.884;9.182;2023-11-21T03:57:56;1.15;;;0.60;;
20065;SDS011;10193;48.884;9.182;2023-11-21T04:00:23;0.80;;;0.50;;
20065;SDS011;10193;48.884;9.182;2023-11-21T04:02:51;0.90;;;0.60;;
20065;SDS011;10193;48.884;9.182;2023-11-21T04:05:19;0.60;;;0.60;;
20065;SDS011;10193;48.884;9.182;2023-11-21T04:07:48;1.65;;;0.80;;
20065;SDS011;10193;48.884;9.182;2023-11-21T04:10:15;0.50;;;0.50;;
20065;SDS011;10193;48.884;9.182;2023-11-21T04:12:41;0.85;;;0.75;;
20065;SDS011;10193;48.884;9.182;2023-11-21T04:15:08;0.85;;;0.50;;
20065;SDS011;10193;48.884;9.182;2023-11-21T04:17:36;0.50;;;0.50;;
20065;SDS011;10193;48.884;9.182;2023-11-21T04:20:03;0.70;;;0.65;;
20065;SDS011;10193;48.884;9.182;2023-11-21T04:22:33;0.60;;;0.50;;
20065;SDS011;10193;48.884;9.182;2023-11-21T04:25:10;1.45;;;0.68;;
20065;SDS011;10193;48.884;9.182;2023-11-21T04:27:39;0.68;;;0.65;;
20065;SDS011;10193;48.884;9.182;2023-11-21T04:30:09;1.08;;;0.60;;
20065;SDS011;10193;48.884;9.182;2023-11-21T04:32:36;0.60;;;0.38;;
20065;SDS011;10193;48.884;9.182;2023-11-21T04:35:02;2.05;;;1.20;;
20065;SDS011;10193;48.884;9.182;2023-11-21T04:37:30;1.05;;;0.88;;
20065;SDS011;10193;48.884;9.182;2023-11-21T04:39:56;0.82;;;0.70;;
20065;SDS011;10193;48.884;9.182;2023-11-21T04:42:24;0.50;;;0.50;;
20065;SDS011;10193;48.884;9.182;2023-11-21T04:44:51;0.85;;;0.50;;
20065;SDS011;10193;48.884;9.182;2023-11-21T04:47:18;1.05;;;0.80;;
20065;SDS011;10193;48.884;9.182;2023-11-21T04:49:45;0.50;;;0.40;;
20065;SDS011;10193;48.884;9.182;2023-11-21T04:52:13;1.20;;;0.80;;
20065;SDS011;10193;48.884;9.182;2023-11-21T04:54:39;0.70;;;0.70;;
20065;SDS011;10193;48.884;9.182;2023-11-21T04:57:06;0.80;;;0.57;;
20065;SDS011;10193;48.884;9.182;2023-11-21T04:59:34;1.17;;;0.70;;
20065;SDS011;10193;48.884;9.182;2023-11-21T05:02:01;1.15;;;0.82;;
20065;SDS011;10193;48.884;9.182;2023-11-21T05:04:28;0.52;;;0.52;;
20065;SDS011;10193;48.884;9.182;2023-11-21T05:06:54;1.05;;;0.60;;
20065;SDS011;10193;48.884;9.182;2023-11-21T05:09:21;1.15;;;0.77;;
20065;SDS011;10193;48.884;9.182;2023-11-21T05:11:48;1.00;;;0.68;;
20065;SDS011;10193;48.884;9.182;2023-11-21T05:14:15;1.08;;;0.70;;
20065;SDS011;10193;48.884;9.182;2023-11-21T05:16:43;1.00;;;0.70;;
20065;SDS011;10193;48.884;9.182;2023-11-21T05:19:09;0.73;;;0.60;;
20065;SDS011;10193;48.884;9.182;2023-11-21T05:21:38;0.65;;;0.50;;
20065;SDS011;10193;48.884;9.182;2023-11-21T05:24:05;0.43;;;0.40;;
20065;SDS011;10193;48.884;9.182;2023-11-21T05:26:32;1.17;;;0.50;;
20065;SDS011;10193;48.884;9.182;2023-11-21T05:28:59;0.55;;;0.52;;
20065;SDS011;10193;48.884;9.182;2023-11-21T05:31:25;0.70;;;0.47;;
20065;SDS011;10193;48.884;9.182;2023-11-21T05:33:54;1.35;;;0.60;;
20065;SDS011;10193;48.884;9.182;2023-11-21T05:36:21;1.42;;;0.82;;
20065;SDS011;10193;48.884;9.182;2023-11-21T05:38:48;0.85;;;0.85;;
20065;SDS011;10193;48.884;9.182;2023-11-21T05:41:15;2.28;;;0.82;;
20065;SDS011;10193;48.884;9.182;2023-11-21T05:43:42;0.90;;;0.90;;
20065;SDS011;10193;48.884;9.182;2023-11-21T05:46:08;0.93;;;0.68;;
20065;SDS011;10193;48.884;9.182;2023-11-21T05:48:35;1.02;;;0.90;;
20065;SDS011;10193;48.884;9.182;2023-11-21T05:51:04;1.17;;;0.68;;
20065;SDS011;10193;48.884;9.182;2023-11-21T05:53:32;0.80;;;0.70;;
20065;SDS011;10193;48.884;9.182;2023-11-21T05:55:58;1.73;;;0.63;;
20065;SDS011;10193;48.884;9.182;2023-11-21T05:58:25;1.15;;;0.80;;
20065;SDS011;10193;48.884;9.182;2023-11-21T06:00:52;0.93;;;0.90;;
20065;SDS011;10193;48.884;9.182;2023-11-21T06:03:18;1.20;;;1.17;;
20065;SDS011;10193;48.884;9.182;2023-11-21T06:05:45;1.50;;;1.17;;
20065;SDS011;10193;48.884;9.182;2023-11-21T06:08:13;2.05;;;1.10;;
20065;SDS011;10193;48.884;9.182;2023-11-21T06:10:42;1.33;;;1.00;;
20065;SDS011;10193;48.884;9.182;2023-11-21T06:13:09;1.20;;;1.02;;
20065;SDS011;10193;48.884;9.182;2023-11-21T06:15:36;1.23;;;1.02;;
20065;SDS011;10193;48.884;9.182;2023-11-21T06:18:03;1.10;;;1.00;;
20065;SDS011;10193;48.884;9.182;2023-11-21T06:20:34;0.70;;;0.70;;
20065;SDS011;10193;48.884;9.182;2023-11-21T06:23:02;1.75;;;1.30;;
20065;SDS011;10193;48.884;9.182;2023-11-21T06:25:30;1.25;;;1.15;;
20065;SDS011;10193;48.884;9.182;2023-11-21T06:27:58;1.30;;;1.02;;
20065;SDS011;10193;48.884;9.182;2023-11-21T06:30:25;1.20;;;1.10;;
20065;SDS011;10193;48.884;9.182;2023-11-21T06:32:51;1.02;;;1.00;;
20065;SDS011;10193;48.884;9.182;2023-11-21T06:35:18;1.83;;;1.02;;
20065;SDS011;10193;48.884;9.182;2023-11-21T06:37:45;0.98;;;0.88;;
20065;SDS011;10193;48.884;9.182;2023-11-21T06:40:13;1.42;;;1.10;;
20065;SDS011;10193;48.884;9.182;2023-11-21T06:42:41;1.10;;;1.00;;
20065;SDS011;10193;48.884;9.182;2023-11-21T06:45:09;1.50;;;1.40;;
20065;SDS011;10193;48.884;9.182;2023-11-21T06:47:36;1.70;;;1.60;;
20065;SDS011;10193;48.884;9.182;2023-11-21T06:50:03;1.50;;;1.40;;
20065;SDS011;10193;48.884;9.182;2023-11-21T06:52:31;1.48;;;1.38;;
20065;SDS011;10193;48.884;9.182;2023-11-21T06:54:58;1.20;;;1.10;;
20065;SDS011;10193;48.884;9.182;2023-11-21T06:57:25;1.73;;;1.30;;
20065;SDS011;10193;48.884;9.182;2023-11-21T06:59:53;1.00;;;1.00;;
20065;SDS011;10193;48.884;9.182;2023-11-21T07:02:22;1.52;;;1.42;;
20065;SDS011;10193;48.884;9.182;2023-11-21T07:04:49;1.15;;;1.02;;
20065;SDS011;10193;48.884;9.182;2023-11-21T07:07:15;1.70;;;0.95;;
20065;SDS011;10193;48.884;9.182;2023-11-21T07:09:42;1.75;;;1.33;;
20065;SDS011;10193;48.884;9.182;2023-11-21T07:12:09;1.00;;;1.00;;
20065;SDS011;10193;48.884;9.182;2023-11-21T07:14:36;1.17;;;1.08;;
20065;SDS011;10193;48.884;9.182;2023-11-21T07:17:05;1.35;;;1.00;;
20065;SDS011;10193;48.884;9.182;2023-11-21T07:19:32;0.90;;;0.82;;
20065;SDS011;10193;48.884;9.182;2023-11-21T07:21:59;2.25;;;1.08;;
20065;SDS011;10193;48.884;9.182;2023-11-21T07:24:25;2.55;;;1.27;;
20065;SDS011;10193;48.884;9.182;2023-11-21T07:26:52;0.80;;;0.80;;
20065;SDS011;10193;48.884;9.182;2023-11-21T07:29:21;1.40;;;1.00;;
20065;SDS011;10193;48.884;9.182;2023-11-21T07:31:50;1.90;;;1.10;;
20065;SDS011;10193;48.884;9.182;2023-11-21T07:34:18;2.22;;;1.10;;
20065;SDS011;10193;48.884;9.182;2023-11-21T07:36:45;0.80;;;0.80;;
20065;SDS011;10193;48.884;9.182;2023-11-21T07:39:12;1.10;;;1.00;;
20065;SDS011;10193;48.884;9.182;2023-11-21T07:41:40;2.40;;;0.85;;
20065;SDS011;10193;48.884;9.182;2023-11-21T07:44:10;0.90;;;0.90;;
20065;SDS011;10193;48.884;9.182;2023-11-21T07:46:37;1.10;;;0.80;;
20065;SDS011;10193;48.884;9.182;2023-11-21T07:49:03;0.77;;;0.70;;
20065;SDS011;10193;48.884;9.182;2023-11-21T07:51:31;1.33;;;1.10;;
20065;SDS011;10193;48.884;9.182;2023-11-21T07:53:58;0.95;;;0.80;;
20065;SDS011;10193;48.884;9.182;2023-11-21T07:56:25;0.77;;;0.77;;
20065;SDS011;10193;48.884;9.182;2023-11-21T07:58:52;0.75;;;0.75;;
20065;SDS011;10193;48.884;9.182;2023-11-21T08:01:19;1.50;;;0.98;;
20065;SDS011;10193;48.884;9.182;2023-11-21T08:03:45;0.70;;;0.70;;
20065;SDS011;10193;48.884;9.182;2023-11-21T08:06:16;0.98;;;0.88;;
20065;SDS011;10193;48.884;9.182;2023-11-21T08:08:44;0.80;;;0.70;;
20065;SDS011;10193;48.884;9.182;2023-11-21T08:11:12;0.90;;;0.90;;
20065;SDS011;10193;48.884;9.182;2023-11-21T08:13:39;0.82;;;0.82;;
20065;SDS011;10193;48.884;9.182;2023-11-21T08:16:06;1.27;;;1.13;;
20065;SDS011;10193;48.884;9.182;2023-11-21T08:18:33;1.63;;;1.20;;
20065;SDS011;10193;48.884;9.182;2023-11-21T08:21:00;1.25;;;1.15;;
20065;SDS011;10193;48.884;9.182;2023-11-21T08:23:28;1.15;;;1.08;;
20065;SDS011;10193;48.884;9.182;2023-11-21T08:25:56;2.10;;;1.30;;
20065;SDS011;10193;48.884;9.182;2023-11-21T08:28:22;1.33;;;1.23;;
20065;SDS011;10193;48.884;9.182;2023-11-21T08:30:50;1.75;;;1.65;;
20065;SDS011;10193;48.884;9.182;2023-11-21T08:33:17;1.70;;;1.60;;
20065;SDS011;10193;48.884;9.182;2023-11-21T08:35:44;1.88;;;1.77;;
20065;SDS011;10193;48.884;9.182;2023-11-21T08:38:11;1.63;;;1.52;;
20065;SDS011;10193;48.884;9.182;2023-11-21T08:40:38;1.50;;;1.40;;
20065;SDS011;10193;48.884;9.182;2023-11-21T08:43:06;1.33;;;1.23;;
20065;SDS011;10193;48.884;9.182;2023-11-21T08:45:33;1.02;;;1.02;;
20065;SDS011;10193;48.884;9.182;2023-11-21T08:48:00;1.20;;;1.20;;
20065;SDS011;10193;48.884;9.182;2023-11-21T08:50:27;2.00;;;1.00;;
20065;SDS011;10193;48.884;9.182;2023-11-21T08:52:54;0.90;;;0.90;;
20065;SDS011;10193;48.884;9.182;2023-11-21T08:55:20;0.80;;;0.80;;
20065;SDS011;10193;48.884;9.182;2023-11-21T08:57:47;0.90;;;0.90;;
20065;SDS011;10193;48.884;9.182;2023-11-21T09:00:16;1.20;;;1.10;;
20065;SDS011;10193;48.884;9.182;2023-11-21T09:02:43;1.15;;;1.10;;
20065;SDS011;10193;48.884;9.182;2023-11-21T09:05:11;1.00;;;1.00;;
20065;SDS011;10193;48.884;9.182;2023-11-21T09:07:38;1.00;;;1.00;;
20065;SDS011;10193;48.884;9.182;2023-11-21T09:10:07;1.05;;;0.95;;
20065;SDS011;10193;48.884;9.182;2023-11-21T09:12:34;1.58;;;1.10;;
20065;SDS011;10193;48.884;9.182;2023-11-21T09:15:02;1.20;;;1.17;;
20065;SDS011;10193;48.884;9.182;2023-11-21T09:17:31;1.10;;;0.93;;
20065;SDS011;10193;48.884;9.182;2023-11-21T09:19:59;0.80;;;0.80;;
20065;SDS011;10193;48.884;9.182;2023-11-21T09:22:25;1.45;;;1.38;;
20065;SDS011;10193;48.884;9.182;2023-11-21T09:24:54;0.90;;;0.90;;
20065;SDS011;10193;48.884;9.182;2023-11-21T09:27:21;1.15;;;1.05;;
20065;SDS011;10193;48.884;9.182;2023-11-21T09:29:48;1.20;;;1.10;;
20065;SDS011;10193;48.884;9.182;2023-11-21T09:32:14;1.40;;;0.90;;
20065;SDS011;10193;48.884;9.182;2023-11-21T09:34:45;0.80;;;0.80;;
20065;SDS011;10193;48.884;9.182;2023-11-21T09:37:11;0.95;;;0.80;;
20065;SDS011;10193;48.884;9.182;2023-11-21T09:39:38;0.80;;;0.80;;
20065;SDS011;10193;48.884;9.182;2023-11-21T09:42:08;0.80;;;0.80;;
20065;SDS011;10193;48.884;9.182;2023-11-21T09:44:41;0.82;;;0.82;;
20065;SDS011;10193;48.884;9.182;2023-11-21T09:47:14;1.00;;;0.80;;
20065;SDS011;10193;48.884;9.182;2023-11-21T09:49:42;0.70;;;0.70;;
20065;SDS011;10193;48.884;9.182;2023-11-21T09:52:14;0.65;;;0.65;;
20065;SDS011;10193;48.884;9.182;2023-11-21T09:54:48;1.13;;;0.80;;
20065;SDS011;10193;48.884;9.182;2023-11-21T09:57:16;0.73;;;0.73;;
20065;SDS011;10193;48.884;9.182;2023-11-21T09:59:43;2.10;;;0.73;;
20065;SDS011;10193;48.884;9.182;2023-11-21T10:02:13;0.70;;;0.70;;
20065;SDS011;10193;48.884;9.182;2023-11-21T10:04:44;0.73;;;0.73;;
20065;SDS011;10193;48.884;9.182;2023-11-21T10:07:12;0.80;;;0.60;;
20065;SDS011;10193;48.884;9.182;2023-11-21T10:09:40;0.93;;;0.60;;
20065;SDS011;10193;48.884;9.182;2023-11-21T10:12:08;0.45;;;0.45;;
20065;SDS011;10193;48.884;9.182;2023-11-21T10:14:37;0.30;;;0.30;;
20065;SDS011;10193;48.884;9.182;2023-11-21T10:17:10;0.70;;;0.52;;
20065;SDS011;10193;48.884;9.182;2023-11-21T10:19:38;0.68;;;0.60;;
20065;SDS011;10193;48.884;9.182;2023-11-21T10:22:07;0.68;;;0.68;;
20065;SDS011;10193;48.884;9.182;2023-11-21T10:24:35;0.70;;;0.50;;
20065;SDS011;10193;48.884;9.182;2023-11-21T10:27:03;0.65;;;0.63;;
20065;SDS011;10193;48.884;9.182;2023-11-21T10:29:30;0.55;;;0.55;;
20065;SDS011;10193;48.884;9.182;2023-11-21T10:32:00;0.55;;;0.55;;
20065;SDS011;10193;48.884;9.182;2023-11-21T10:34:28;0.40;;;0.40;;
20065;SDS011;10193;48.884;9.182;2023-11-21T10:36:54;0.65;;;0.60;;
20065;SDS011;10193;48.884;9.182;2023-11-21T10:39:24;0.63;;;0.63;;
20065;SDS011;10193;48.884;9.182;2023-11-21T10:41:55;0.55;;;0.50;;
20065;SDS011;10193;48.884;9.182;2023-11-21T10:44:22;0.50;;;0.50;;
20065;SDS011;10193;48.884;9.182;2023-11-21T10:46:50;0.77;;;0.50;;
20065;SDS011;10193;48.884;9.182;2023-11-21T10:49:21;0.63;;;0.60;;
20065;SDS011;10193;48.884;9.182;2023-11-21T10:51:49;0.50;;;0.50;;
20065;SDS011;10193;48.884;9.182;2023-11-21T10:54:18;0.60;;;0.60;;
20065;SDS011;10193;48.884;9.182;2023-11-21T10:56:48;0.63;;;0.60;;
20065;SDS011;10193;48.884;9.182;2023-11-21T10:59:16;1.02;;;0.60;;
20065;SDS011;10193;48.884;9.182;2023-11-21T11:01:44;0.85;;;0.80;;
20065;SDS011;10193;48.884;9.182;2023-11-21T11:04:12;0.80;;;0.80;;
20065;SDS011;10193;48.884;9.182;2023-11-21T11:06:42;1.17;;;1.05;;
20065;SDS011;10193;48.884;9.182;2023-11-21T11:09:09;0.82;;;0.82;;
20065;SDS011;10193;48.884;9.182;2023-11-21T11:11:38;1.20;;;1.20;;
20065;SDS011;10193;48.884;9.182;2023-11-21T11:14:07;1.02;;;0.93;;
20065;SDS011;10193;48.884;9.182;2023-11-21T11:16:36;1.05;;;1.05;;
20065;SDS011;10193;48.884;9.182;2023-11-21T11:19:06;0.90;;;0.90;;
20065;SDS011;10193;48.884;9.182;2023-11-21T11:21:35;1.30;;;1.20;;
20065;SDS011;10193;48.884;9.182;2023-11-21T11:24:13;1.10;;;1.10;;
20065;SDS011;10193;48.884;9.182;2023-11-21T11:26:55;1.20;;;1.20;;
20065;SDS011;10193;48.884;9.182;2023-11-21T11:29:27;1.20;;;1.00;;
20065;SDS011;10193;48.884;9.182;2023-11-21T11:32:04;1.10;;;1.00;;
20065;SDS011;10193;48.884;9.182;2023-11-21T11:34:40;1.00;;;1.00;;
20065;SDS011;10193;48.884;9.182;2023-11-21T11:37:12;1.25;;;0.88;;
20065;SDS011;10193;48.884;9.182;2023-11-21T11:39:40;0.90;;;0.90;;
20065;SDS011;10193;48.884;9.182;2023-11-21T11:42:10;1.20;;;1.15;;
20065;SDS011;10193;48.884;9.182;2023-11-21T11:44:52;1.05;;;1.05;;
20065;SDS011;10193;48.884;9.182;2023-11-21T11:47:21;1.00;;;1.00;;
20065;SDS011;10193;48.884;9.182;2023-11-21T11:50:05;0.90;;;0.90;;
20065;SDS011;10193;48.884;9.182;2023-11-21T11:52:39;0.93;;;0.93;;
20065;SDS011;10193;48.884;9.182;2023-11-21T11:55:07;1.67;;;1.20;;
20065;SDS011;10193;48.884;9.182;2023-11-21T11:57:38;1.17;;;1.17;;
20065;SDS011;10193;48.884;9.182;2023-11-21T12:00:17;1.10;;;1.10;;
20065;SDS011;10193;48.884;9.182;2023-11-21T12:02:46;1.20;;;1.20;;
20065;SDS011;10193;48.884;9.182;2023-11-21T12:05:14;1.63;;;1.33;;
20065;SDS011;10193;48.884;9.182;2023-11-21T12:07:43;1.48;;;1.45;;
20065;SDS011;10193;48.884;9.182;2023-11-21T12:10:12;1.70;;;1.60;;
20065;SDS011;10193;48.884;9.182;2023-11-21T12:12:42;1.48;;;1.45;;
20065;SDS011;10193;48.884;9.182;2023-11-21T12:15:11;1.60;;;1.50;;
20065;SDS011;10193;48.884;9.182;2023-11-21T12:17:39;1.77;;;1.67;;
20065;SDS011;10193;48.884;9.182;2023-11-21T12:20:07;1.70;;;1.60;;
20065;SDS011;10193;48.884;9.182;2023-11-21T12:22:40;1.50;;;1.50;;
20065;SDS011;10193;48.884;9.182;2023-11-21T12:25:09;1.40;;;1.40;;
20065;SDS011;10193;48.884;9.182;2023-11-21T12:27:40;1.70;;;1.60;;
20065;SDS011;10193;48.884;9.182;2023-11-21T12:30:08;1.60;;;1.50;;
20065;SDS011;10193;48.884;9.182;2023-11-21T12:32:39;1.65;;;1.63;;
20065;SDS011;10193;48.884;9.182;2023-11-21T12:35:07;1.70;;;1.60;;
20065;SDS011;10193;48.884;9.182;2023-11-21T12:37:34;1.55;;;1.45;;
20065;SDS011;10193;48.884;9.182;2023-11-21T12:40:02;2.20;;;1.30;;
20065;SDS011;10193;48.884;9.182;2023-11-21T12:42:29;1.55;;;1.45;;
20065;SDS011;10193;48.884;9.182;2023-11-21T12:45:09;1.30;;;1.20;;
20065;SDS011;10193;48.884;9.182;2023-11-21T12:47:46;1.33;;;1.30;;
20065;SDS011;10193;48.884;9.182;2023-11-21T12:50:14;1.25;;;1.25;;
20065;SDS011;10193;48.884;9.182;2023-11-21T12:52:41;1.10;;;1.10;;
20065;SDS011;10193;48.884;9.182;2023-11-21T12:55:12;1.10;;;1.02;;
20065;SDS011;10193;48.884;9.182;2023-11-21T12:57:41;1.20;;;1.10;;
20065;SDS011;10193;48.884;9.182;2023-11-21T13:00:12;0.80;;;0.80;;
20065;SDS011;10193;48.884;9.182;2023-11-21T13:02:53;1.15;;;1.15;;
20065;SDS011;10193;48.884;9.182;2023-11-21T13:05:28;0.70;;;0.70;;
20065;SDS011;10193;48.884;9.182;2023-11-21T13:07:56;1.58;;;1.10;;
20065;SDS011;10193;48.884;9.182;2023-11-21T13:10:24;0.60;;;0.60;;
20065;SDS011;10193;48.884;9.182;2023-11-21T13:12:55;1.20;;;0.70;;
20065;SDS011;10193;48.884;9.182;2023-11-21T13:15:24;0.93;;;0.93;;
20065;SDS011;10193;48.884;9.182;2023-11-21T13:17:53;0.80;;;0.80;;
20065;SDS011;10193;48.884;9.182;2023-11-21T13:20:22;0.95;;;0.90;;
20065;SDS011;10193;48.884;9.182;2023-11-21T13:22:50;0.65;;;0.65;;
20065;SDS011;10193;48.884;9.182;2023-11-21T13:25:19;0.88;;;0.88;;
20065;SDS011;10193;48.884;9.182;2023-11-21T13:27:47;0.95;;;0.95;;
20065;SDS011;10193;48.884;9.182;2023-11-21T13:30:14;1.17;;;1.17;;
20065;SDS011;10193;48.884;9.182;2023-11-21T13:32:41;0.93;;;0.90;;
20065;SDS011;10193;48.884;9.182;2023-11-21T13:35:10;1.10;;;1.10;;
20065;SDS011;10193;48.884;9.182;2023-11-21T13:37:46;1.00;;;1.00;;
20065;SDS011;10193;48.884;9.182;2023-11-21T13:40:14;1.00;;;0.90;;
20065;SDS011;10193;48.884;9.182;2023-11-21T13:42:45;0.90;;;0.90;;
20065;SDS011;10193;48.884;9.182;2023-11-21T13:45:12;1.27;;;1.17;;
20065;SDS011;10193;48.884;9.182;2023-11-21T13:47:38;1.52;;;1.25;;
20065;SDS011;10193;48.884;9.182;2023-11-21T13:50:06;1.35;;;1.30;;
20065;SDS011;10193;48.884;9.182;2023-11-21T13:52:43;1.38;;;1.00;;
20065;SDS011;10193;48.884;9.182;2023-11-21T13:55:10;0.95;;;0.95;;
20065;SDS011;10193;48.884;9.182;2023-11-21T13:57:40;1.20;;;1.10;;
20065;SDS011;10193;48.884;9.182;2023-11-21T14:00:08;1.10;;;1.10;;
20065;SDS011;10193;48.884;9.182;2023-11-21T14:02:56;1.25;;;1.15;;
20065;SDS011;10193;48.884;9.182;2023-11-21T14:05:25;1.00;;;1.00;;
20065;SDS011;10193;48.884;9.182;2023-11-21T14:07:55;1.17;;;1.08;;
20065;SDS011;10193;48.884;9.182;2023-11-21T14:10:27;1.10;;;1.00;;
20065;SDS011;10193;48.884;9.182;2023-11-21T14:13:01;1.00;;;1.00;;
20065;SDS011;10193;48.884;9.182;2023-11-21T14:15:28;1.30;;;1.20;;
20065;SDS011;10193;48.884;9.182;2023-11-21T14:17:57;0.90;;;0.90;;
20065;SDS011;10193;48.884;9.182;2023-11-21T14:20:27;1.10;;;1.10;;
20065;SDS011;10193;48.884;9.182;2023-11-21T14:22:56;0.98;;;0.98;;
20065;SDS011;10193;48.884;9.182;2023-11-21T14:25:23;1.77;;;1.08;;
20065;SDS011;10193;48.884;9.182;2023-11-21T14:27:50;1.23;;;1.10;;
20065;SDS011;10193;48.884;9.182;2023-11-21T14:30:17;1.40;;;1.30;;
20065;SDS011;10193;48.884;9.182;2023-11-21T14:32:47;1.05;;;1.05;;
20065;SDS011;10193;48.884;9.182;2023-11-21T14:35:14;1.20;;;1.20;;
20065;SDS011;10193;48.884;9.182;2023-11-21T14:37:41;1.15;;;1.15;;
20065;SDS011;10193;48.884;9.182;2023-11-21T14:40:10;1.10;;;1.10;;
20065;SDS011;10193;48.884;9.182;2023-11-21T14:42:40;1.10;;;1.10;;
20065;SDS011;10193;48.884;9.182;2023-11-21T14:45:08;1.38;;;1.33;;
20065;SDS011;10193;48.884;9.182;2023-11-21T14:47:37;1.70;;;1.60;;
20065;SDS011;10193;48.884;9.182;2023-11-21T14:50:09;1.55;;;1.45;;
20065;SDS011;10193;48.884;9.182;2023-11-21T14:53:04;1.65;;;1.55;;
20065;SDS011;10193;48.884;9.182;2023-11-21T14:55:32;2.25;;;1.55;;